TimeCDT,TemperatureF,Dew PointF,Humidity,Sea Level PressureIn,VisibilityMPH,Wind Direction,Wind SpeedMPH,Gust SpeedMPH,PrecipitationIn,Events,Conditions,WindDirDegrees,DateUTC
12:53 AM,34.0,34.0,100,30.03,8.0,Calm,Calm,-,N/A,,Scattered Clouds,0,2013-05-05 05:53:00
1:53 AM,34.0,34.0,100,30.02,9.0,Calm,Calm,-,N/A,,Mostly Cloudy,0,2013-05-05 06:53:00
2:27 AM,33.8,33.8,100,30.00,6.0,Calm,Calm,-,N/A,,Partly Cloudy,0,2013-05-05 07:27:00
2:34 AM,33.8,33.8,100,30.00,1.8,Calm,Calm,-,N/A,,Clear,0,2013-05-05 07:34:00
2:49 AM,33.8,33.8,100,30.00,4.0,Calm,Calm,-,N/A,,Clear,0,2013-05-05 07:49:00
2:53 AM,33.1,33.1,100,30.02,9.0,Calm,Calm,-,N/A,,Clear,0,2013-05-05 07:53:00
3:53 AM,30.9,30.9,100,30.03,6.0,South,5.8,-,N/A,,Partly Cloudy,190,2013-05-05 08:53:00
4:53 AM,33.1,33.1,100,30.04,10.0,Calm,Calm,-,N/A,,Mostly Cloudy,0,2013-05-05 09:53:00
5:12 AM,33.8,33.8,100,30.02,10.0,South,4.6,-,N/A,,Mostly Cloudy,180,2013-05-05 10:12:00
5:29 AM,33.8,33.8,100,30.03,10.0,Calm,Calm,-,N/A,,Mostly Cloudy,0,2013-05-05 10:29:00
5:53 AM,33.1,33.1,100,30.04,7.0,Calm,Calm,-,N/A,,Overcast,0,2013-05-05 10:53:00
6:23 AM,33.8,33.8,100,30.04,10.0,Calm,Calm,-,N/A,,Overcast,0,2013-05-05 11:23:00
6:53 AM,37.0,37.0,100,30.06,10.0,North,3.5,-,N/A,,Overcast,10,2013-05-05 11:53:00
7:53 AM,37.9,37.9,100,30.08,5.0,NW,3.5,-,N/A,,Overcast,310,2013-05-05 12:53:00
8:53 AM,42.1,39.9,92,30.09,10.0,North,4.6,-,N/A,,Scattered Clouds,360,2013-05-05 13:53:00
9:53 AM,46.9,39.9,77,30.09,10.0,North,8.1,-,N/A,,Partly Cloudy,350,2013-05-05 14:53:00
10:53 AM,50.0,41.0,71,30.10,10.0,NW,11.5,-,N/A,,Mostly Cloudy,310,2013-05-05 15:53:00
11:53 AM,52.0,41.0,66,30.09,10.0,NW,11.5,-,N/A,,Mostly Cloudy,310,2013-05-05 16:53:00
12:53 PM,55.4,42.8,63,30.07,10.0,North,-9999.0,-,N/A,,Clear,0,2013-05-05 17:53:00
1:53 PM,57.0,44.1,62,30.06,10.0,NNW,6.9,-,N/A,,Scattered Clouds,330,2013-05-05 18:53:00
2:53 PM,57.0,43.0,59,30.06,10.0,NNW,11.5,-,N/A,,Overcast,330,2013-05-05 19:53:00
3:53 PM,57.9,46.0,65,30.04,10.0,NW,12.7,18.4,N/A,,Mostly Cloudy,310,2013-05-05 20:53:00
4:53 PM,57.0,46.0,67,30.04,10.0,North,10.4,-,N/A,,Overcast,350,2013-05-05 21:53:00
5:53 PM,55.9,48.0,75,30.04,10.0,NW,9.2,-,N/A,,Scattered Clouds,310,2013-05-05 22:53:00
6:53 PM,55.0,46.9,74,30.05,10.0,NW,10.4,-,N/A,,Overcast,320,2013-05-05 23:53:00
7:53 PM,53.1,48.0,83,30.05,10.0,NW,8.1,-,N/A,,Overcast,310,2013-05-06 00:53:00
8:53 PM,52.0,48.0,86,30.05,10.0,WNW,6.9,-,N/A,,Overcast,290,2013-05-06 01:53:00
9:53 PM,52.0,48.0,86,30.06,10.0,NW,8.1,-,N/A,,Overcast,320,2013-05-06 02:53:00
10:53 PM,52.0,48.0,86,30.06,10.0,NW,8.1,-,N/A,,Overcast,310,2013-05-06 03:53:00
11:53 PM,51.1,48.0,89,30.06,10.0,NW,8.1,-,N/A,,Overcast,310,2013-05-06 04:53:00